Time;durP1;ratioP1;P1;durP2;ratioP2;P2;SDS_P1;SDS_P2;PMS_P1;PMS_P2;Temp;Humidity;BMP_temperature;BMP_pressure;BME280_temperature;BME280_humidity;BME280_pressure;Samples;Min_cycle;Max_cycle;Signal;HPM_P1;HPM_P2
2023/11/16 00:00:27;;;;;;;14.70;2.92;;;;;;;17.07;100.00;101063.13;20940806;28;20135;-74
2023/11/16 00:10:50;;;;;;;12.23;3.05;;;;;;;17.35;100.00;101062.06;20950062;28;20899;-74
2023/11/16 00:21:15;;;;;;;10.75;2.70;;;;;;;17.43;100.00;101051.34;20966630;28;20051;-75
2023/11/16 00:31:38;;;;;;;9.13;2.83;;;;;;;17.53;100.00;101045.00;20941432;28;20049;-74
2023/11/16 00:42:02;;;;;;;11.85;3.15;;;;;;;17.53;100.00;101037.00;20932909;28;20048;-74
2023/11/16 00:52:24;;;;;;;7.00;2.30;;;;;;;17.08;100.00;101038.22;20923813;28;20067;-75
2023/11/16 01:02:49;;;;;;;8.40;2.42;;;;;;;16.90;100.00;101035.69;20927972;28;20056;-75
2023/11/16 01:13:11;;;;;;;7.22;2.45;;;;;;;17.16;100.00;101039.06;20906068;28;20060;-75
2023/11/16 01:23:36;;;;;;;9.20;2.30;;;;;;;16.96;100.00;101038.31;20950469;28;20090;-75
2023/11/16 01:33:58;;;;;;;7.55;2.13;;;;;;;17.11;100.00;101048.91;20948298;28;20048;-75
2023/11/16 01:44:23;;;;;;;7.60;2.20;;;;;;;17.09;100.00;101048.91;20915413;28;20056;-75
2023/11/16 01:54:45;;;;;;;8.05;1.90;;;;;;;17.04;100.00;101045.38;20912992;28;20052;-75
2023/11/16 02:05:10;;;;;;;7.13;2.10;;;;;;;17.04;100.00;101044.50;20952471;28;20523;-75
2023/11/16 02:15:32;;;;;;;6.57;2.20;;;;;;;16.98;100.00;101053.44;20910682;28;20116;-74
2023/11/16 02:25:56;;;;;;;5.43;1.50;;;;;;;16.71;100.00;101048.25;20885863;28;20049;-74
2023/11/16 02:36:19;;;;;;;6.10;2.10;;;;;;;16.65;100.00;101046.50;20933656;28;20516;-74
2023/11/16 02:46:44;;;;;;;7.47;2.28;;;;;;;16.79;100.00;101022.44;20900164;28;20045;-74
2023/11/16 02:57:09;;;;;;;5.32;2.08;;;;;;;16.73;100.00;101007.34;20954108;28;20584;-74
2023/11/16 03:07:33;;;;;;;7.57;2.05;;;;;;;16.19;100.00;101013.78;20728343;28;20057;-74
2023/11/16 03:17:56;;;;;;;7.57;2.08;;;;;;;16.27;100.00;101048.38;20779519;28;20046;-74
2023/11/16 03:28:20;;;;;;;9.70;2.92;;;;;;;16.52;100.00;101042.06;20772851;28;20070;-75
2023/11/16 03:38:42;;;;;;;9.98;2.78;;;;;;;16.45;100.00;101069.63;20771257;28;20076;-74
2023/11/16 03:49:06;;;;;;;9.68;2.40;;;;;;;16.52;100.00;101095.38;20744569;28;20450;-74
2023/11/16 03:59:29;;;;;;;8.75;2.42;;;;;;;16.54;100.00;101112.22;20784422;28;20502;-74
2023/11/16 04:09:53;;;;;;;8.07;2.22;;;;;;;16.49;100.00;101122.03;20916031;28;20056;-73
2023/11/16 04:20:16;;;;;;;9.40;2.78;;;;;;;16.51;100.00;101149.56;20968757;28;20056;-74
2023/11/16 04:30:40;;;;;;;12.98;2.47;;;;;;;16.50;100.00;101142.47;20924256;28;20053;-74
2023/11/16 04:41:03;;;;;;;7.72;2.28;;;;;;;16.35;100.00;101164.69;20951388;28;20054;-74
2023/11/16 04:51:27;;;;;;;8.02;2.20;;;;;;;16.30;100.00;101181.59;20934574;28;20051;-75
2023/11/16 05:01:50;;;;;;;8.35;1.90;;;;;;;16.36;100.00;101181.56;20930854;28;20053;-74
2023/11/16 05:12:14;;;;;;;11.95;2.63;;;;;;;16.33;100.00;101186.91;20880771;28;20491;-75
2023/11/16 05:22:36;;;;;;;6.22;2.15;;;;;;;16.38;100.00;101181.56;20931904;28;20044;-74
2023/11/16 05:33:01;;;;;;;8.07;2.47;;;;;;;16.51;100.00;101176.22;20959965;28;20056;-74
2023/11/16 05:43:24;;;;;;;9.63;2.60;;;;;;;16.69;100.00;101178.88;20952910;28;20071;-74
2023/11/16 05:53:48;;;;;;;6.22;1.88;;;;;;;17.52;100.00;101182.09;20925669;28;20045;-73
2023/11/16 06:04:10;;;;;;;4.78;1.25;;;;;;;18.32;100.00;101205.53;20941402;28;20052;-74
2023/11/16 06:14:35;;;;;;;7.07;1.63;;;;;;;19.00;100.00;101254.81;20927930;28;20403;-74
2023/11/16 06:24:59;;;;;;;6.20;1.65;;;;;;;19.55;100.00;101259.53;20944910;28;20045;-74
2023/11/16 06:35:24;;;;;;;10.23;3.20;;;;;;;20.20;100.00;101280.00;20955637;28;20076;-74
2023/11/16 06:45:48;;;;;;;5.88;1.90;;;;;;;20.79;100.00;101282.63;20848557;28;20053;-72
2023/11/16 06:56:12;;;;;;;10.07;2.95;;;;;;;20.85;100.00;101256.56;20849104;28;20459;-73
2023/11/16 07:06:35;;;;;;;7.10;1.90;;;;;;;21.25;100.00;101266.56;20876041;28;20049;-73
2023/11/16 07:17:00;;;;;;;9.18;1.30;;;;;;;22.42;100.00;101266.63;20900715;28;20165;-73
2023/11/16 07:27:23;;;;;;;10.27;1.70;;;;;;;22.39;100.00;101258.59;20929094;28;20048;-73
2023/11/16 07:37:48;;;;;;;5.43;1.30;;;;;;;22.34;100.00;101255.16;20914550;28;20065;-73
2023/11/16 07:48:13;;;;;;;3.50;1.08;;;;;;;23.27;100.00;101265.22;20885970;28;20410;-74
2023/11/16 07:58:39;;;;;;;10.05;1.50;;;;;;;23.75;100.00;101256.66;20907335;28;20095;-74
2023/11/16 08:09:01;;;;;;;5.27;1.00;;;;;;;24.66;100.00;101255.47;20888057;28;20052;-74
2023/11/16 08:19:26;;;;;;;5.13;1.00;;;;;;;25.19;100.00;101249.06;20843173;28;20389;-75
2023/11/16 08:29:49;;;;;;;4.38;1.52;;;;;;;25.49;100.00;101255.13;20915775;28;20055;-74
2023/11/16 08:40:18;;;;;;;6.68;1.02;;;;;;;25.82;100.00;101266.50;20906466;28;20077;-74
2023/11/16 08:50:42;;;;;;;5.55;1.40;;;;;;;25.89;100.00;101259.03;20945070;28;20408;-75
2023/11/16 09:01:07;;;;;;;5.43;1.10;;;;;;;25.61;100.00;101264.63;20968537;28;20080;-74
2023/11/16 09:11:30;;;;;;;7.35;1.00;;;;;;;26.20;100.00;101263.13;20932461;28;20123;-74
2023/11/16 09:21:54;;;;;;;9.88;1.40;;;;;;;26.21;100.00;101258.59;20909659;28;20098;-75
2023/11/16 09:32:17;;;;;;;9.18;1.88;;;;;;;25.88;100.00;101260.84;20928233;28;20410;-74
2023/11/16 09:42:43;;;;;;;7.72;1.35;;;;;;;25.80;100.00;101261.16;20976847;28;20053;-74
2023/11/16 09:53:07;;;;;;;7.13;2.10;;;;;;;26.14;100.00;101251.69;20892595;28;20053;-74
2023/11/16 10:03:36;;;;;;;5.78;1.60;;;;;;;26.77;100.00;101252.66;20906511;28;20140;-75
2023/11/16 10:13:59;;;;;;;9.63;1.85;;;;;;;27.19;100.00;101264.31;20944912;28;20461;-74
2023/11/16 10:24:23;;;;;;;7.43;1.67;;;;;;;27.52;100.00;101261.91;20936373;28;20102;-74
2023/11/16 10:34:46;;;;;;;8.45;1.90;;;;;;;28.07;100.00;101267.44;20934606;28;20103;-74
2023/11/16 10:45:14;;;;;;;7.47;2.10;;;;;;;27.79;100.00;101269.72;20934652;28;20059;-75
2023/11/16 10:55:37;;;;;;;7.45;1.85;;;;;;;27.49;100.00;101272.91;20909369;28;20410;-75
2023/11/16 11:06:03;;;;;;;10.88;2.17;;;;;;;27.32;100.00;101276.38;20917729;28;20052;-74
2023/11/16 11:16:27;;;;;;;10.32;2.58;;;;;;;26.62;100.00;101275.88;20867120;28;20073;-73
2023/11/16 11:26:52;;;;;;;7.38;1.95;;;;;;;27.08;100.00;101271.19;20871235;28;20057;-74
2023/11/16 11:37:15;;;;;;;12.52;2.75;;;;;;;26.81;100.00;101270.53;20926433;28;20066;-74
2023/11/16 11:47:41;;;;;;;11.00;3.10;;;;;;;26.22;100.00;101289.25;20947931;28;20495;-74
2023/11/16 11:58:05;;;;;;;16.00;3.55;;;;;;;25.72;100.00;101295.75;20890148;28;20494;-73
2023/11/16 12:08:40;;;;;;;15.05;3.55;;;;;;;25.30;100.00;101298.22;20891307;28;20052;-73
2023/11/16 12:19:08;;;;;;;10.50;3.85;;;;;;;24.94;100.00;101303.09;20863084;28;20835;-73
2023/11/16 12:29:32;;;;;;;;;;;;;;;24.68;100.00;101303.09;20880682;28;20060;-72
2023/11/16 12:39:56;;;;;;;14.25;3.38;;;;;;;24.65;100.00;101305.03;20901537;28;19935;-73
2023/11/16 12:50:21;;;;;;;16.70;3.30;;;;;;;24.69;100.00;101310.25;20878070;28;20922;-72
2023/11/16 13:00:43;;;;;;;12.25;2.85;;;;;;;24.55;100.00;101310.72;20926182;28;20506;-74
2023/11/16 13:11:08;;;;;;;13.73;4.15;;;;;;;24.19;100.00;101311.94;20947395;28;20498;-74
2023/11/16 13:21:30;;;;;;;13.75;4.38;;;;;;;24.15;100.00;101305.72;20932109;28;20111;-73
2023/11/16 13:31:55;;;;;;;17.02;4.28;;;;;;;23.94;100.00;101327.97;20902503;28;20055;-72
2023/11/16 13:42:17;;;;;;;10.00;3.95;;;;;;;23.72;100.00;101330.41;20964133;28;20041;-74
2023/11/16 13:52:44;;;;;;;16.85;4.32;;;;;;;23.59;100.00;101347.00;20901943;28;20053;-74
2023/11/16 14:03:07;;;;;;;13.68;3.80;;;;;;;23.30;100.00;101358.56;20915491;28;20075;-74
2023/11/16 14:13:31;;;;;;;10.75;3.10;;;;;;;23.26;100.00;101370.34;20887715;28;20441;-74
2023/11/16 14:23:54;;;;;;;18.77;3.90;;;;;;;23.05;100.00;101378.06;20937043;28;20048;-74
2023/11/16 14:34:18;;;;;;;10.48;2.60;;;;;;;22.85;100.00;101385.78;20899588;28;20051;-73
2023/11/16 14:44:41;;;;;;;10.63;2.42;;;;;;;22.71;100.00;101409.41;20942777;28;20048;-74
2023/11/16 14:55:06;;;;;;;11.10;3.00;;;;;;;22.68;100.00;101414.88;20905880;28;20117;-74
2023/11/16 15:05:29;;;;;;;18.08;5.35;;;;;;;22.53;100.00;101428.69;20905414;28;20056;-73
2023/11/16 15:15:53;;;;;;;13.65;4.13;;;;;;;22.34;100.00;101422.84;20902974;28;20051;-73
2023/11/16 15:26:16;;;;;;;8.88;2.20;;;;;;;21.98;100.00;101431.72;20882830;28;20498;-74
2023/11/16 15:36:40;;;;;;;11.15;2.58;;;;;;;21.73;100.00;101426.78;20945995;28;20048;-73
2023/11/16 15:47:02;;;;;;;12.85;2.38;;;;;;;21.51;100.00;101435.31;20935035;28;20049;-73
2023/11/16 15:57:26;;;;;;;11.40;2.72;;;;;;;21.35;100.00;101438.25;20925488;28;20052;-73
2023/11/16 16:07:50;;;;;;;7.97;2.28;;;;;;;21.24;100.00;101453.69;20914384;28;20115;-74
2023/11/16 16:18:14;;;;;;;11.52;2.03;;;;;;;21.15;100.00;101453.78;20884306;28;20541;-73
2023/11/16 16:28:37;;;;;;;9.38;1.95;;;;;;;21.11;100.00;101457.47;20876630;28;20065;-72
2023/11/16 16:39:01;;;;;;;9.18;1.88;;;;;;;21.18;100.00;101455.59;20865662;28;20107;-72
2023/11/16 16:49:24;;;;;;;7.63;1.70;;;;;;;21.08;100.00;101476.28;20859483;28;20550;-73
2023/11/16 16:59:49;;;;;;;8.20;1.55;;;;;;;21.08;100.00;101484.34;20914860;28;20041;-75
2023/11/16 17:10:11;;;;;;;8.52;1.83;;;;;;;21.08;100.00;101479.88;20892309;28;20142;-74
2023/11/16 17:20:36;;;;;;;9.80;1.75;;;;;;;21.13;100.00;101481.59;20930118;28;20045;-74
2023/11/16 17:30:59;;;;;;;11.07;2.00;;;;;;;21.08;100.00;101487.03;20938183;28;20098;-75
2023/11/16 17:41:24;;;;;;;7.50;1.58;;;;;;;21.06;100.00;101503.19;20929558;28;20045;-74
2023/11/16 17:51:46;;;;;;;6.43;1.55;;;;;;;21.10;100.00;101493.28;20944127;28;20057;-74
2023/11/16 18:02:13;;;;;;;7.15;1.20;;;;;;;21.12;100.00;101502.19;20919906;28;20052;-75
2023/11/16 18:12:39;;;;;;;6.47;1.42;;;;;;;21.15;100.00;101487.81;20910305;28;20052;-74
2023/11/16 18:23:05;;;;;;;6.45;1.60;;;;;;;21.13;100.00;101506.66;20901601;28;20060;-73
2023/11/16 18:33:29;;;;;;;5.90;1.50;;;;;;;21.16;100.00;101517.38;20946290;28;20045;-73
2023/11/16 18:43:53;;;;;;;7.57;1.42;;;;;;;21.18;100.00;101512.00;20894712;28;20517;-73
2023/11/16 18:54:16;;;;;;;9.65;1.52;;;;;;;21.18;100.00;101526.31;20924494;28;20052;-75
2023/11/16 19:04:40;;;;;;;8.52;2.00;;;;;;;21.16;100.00;101530.81;20929920;28;20098;-74
2023/11/16 19:15:03;;;;;;;8.55;1.52;;;;;;;21.13;100.00;101525.47;20903056;28;20461;-73
2023/11/16 19:25:28;;;;;;;7.20;1.50;;;;;;;21.01;100.00;101529.19;20907664;28;20080;-73
2023/11/16 19:35:51;;;;;;;9.75;2.10;;;;;;;20.90;100.00;101531.16;20882767;28;20049;-73
2023/11/16 19:46:31;;;;;;;6.30;1.88;;;;;;;20.75;100.00;101526.00;20888957;28;20131;-74
2023/11/16 19:56:53;;;;;;;7.40;1.50;;;;;;;20.66;100.00;101520.78;20869724;28;20079;-73
2023/11/16 20:07:18;;;;;;;7.28;1.58;;;;;;;20.71;100.00;101529.66;20824473;28;20072;-73
2023/11/16 20:17:44;;;;;;;9.13;1.80;;;;;;;20.79;100.00;101537.59;20863151;28;20086;-73
2023/11/16 20:28:09;;;;;;;6.10;1.77;;;;;;;20.82;100.00;101545.59;20888254;28;20041;-73
2023/11/16 20:38:32;;;;;;;6.35;1.45;;;;;;;20.79;100.00;101543.88;20871570;28;20045;-73
2023/11/16 20:48:56;;;;;;;7.35;1.67;;;;;;;20.80;100.00;101560.84;20909826;28;20045;-72
2023/11/16 20:59:19;;;;;;;4.82;1.67;;;;;;;20.75;100.00;101547.47;20881147;28;20056;-73
2023/11/16 21:09:45;;;;;;;6.95;1.40;;;;;;;20.68;100.00;101556.50;20915213;28;20912;-73
2023/11/16 21:20:11;;;;;;;8.13;2.60;;;;;;;20.67;100.00;101552.97;20930431;28;20040;-73
2023/11/16 21:30:36;;;;;;;4.40;1.40;;;;;;;20.50;100.00;101549.59;20934195;28;20045;-73
2023/11/16 21:41:01;;;;;;;9.07;1.63;;;;;;;20.21;100.00;101546.38;20907406;28;20139;-73
2023/11/16 21:51:25;;;;;;;5.07;1.70;;;;;;;19.98;100.00;101535.88;20914597;28;20076;-73
2023/11/16 22:01:49;;;;;;;5.47;1.98;;;;;;;19.71;100.00;101537.03;20924017;28;20067;-73
2023/11/16 22:12:14;;;;;;;7.60;2.05;;;;;;;19.53;100.00;101522.94;20916743;28;20041;-73
2023/11/16 22:22:36;;;;;;;7.72;2.03;;;;;;;19.24;100.00;101531.16;20894289;28;20037;-73
2023/11/16 22:33:00;;;;;;;7.30;1.95;;;;;;;19.10;100.00;101525.91;20952551;28;20078;-73
2023/11/16 22:43:23;;;;;;;5.90;1.70;;;;;;;18.88;100.00;101535.00;20915440;28;20045;-73
2023/11/16 22:53:51;;;;;;;4.75;1.77;;;;;;;18.66;100.00;101531.53;20920205;28;20049;-73
2023/11/16 23:04:13;;;;;;;6.27;1.60;;;;;;;18.54;100.00;101532.47;20896429;28;20053;-73
2023/11/16 23:14:39;;;;;;;4.95;1.58;;;;;;;18.30;100.00;101533.47;20932350;28;20048;-73
2023/11/16 23:25:01;;;;;;;7.10;1.65;;;;;;;18.17;100.00;101525.50;20900575;28;20049;-72
2023/11/16 23:35:26;;;;;;;4.72;1.35;;;;;;;18.08;100.00;101528.19;20901047;28;20057;-73
2023/11/16 23:45:51;;;;;;;7.07;2.13;;;;;;;17.92;100.00;101516.63;20946960;28;20058;-72
2023/11/16 23:56:15;;;;;;;4.30;1.80;;;;;;;17.84;100.00;101513.13;20931182;28;20056;-73
